createdAt,value
2023-04-27T00:00:29.969Z,40.60
2023-04-27T00:05:35.969Z,40.70
2023-04-27T00:10:38.971Z,40.70
2023-04-27T00:15:45.294Z,40.80
2023-04-27T00:20:48.213Z,40.80
2023-04-27T00:25:51.302Z,40.70
2023-04-27T00:30:55.506Z,40.80
2023-04-27T00:36:00.724Z,40.90
2023-04-27T00:41:03.708Z,40.90
2023-04-27T00:46:07.919Z,41.70
2023-04-27T00:51:10.781Z,41.80
2023-04-27T00:56:14.012Z,40.80
2023-04-27T01:01:20.628Z,41.70
2023-04-27T01:06:23.583Z,41.60
2023-04-27T01:11:26.429Z,41.60
2023-04-27T01:16:30.676Z,41.60
2023-04-27T01:21:33.506Z,41.90
2023-04-27T01:26:37.667Z,40.90
2023-04-27T01:31:40.905Z,41.80
2023-04-27T01:36:43.816Z,41.60
2023-04-27T01:41:48.001Z,41.80
2023-04-27T01:46:50.977Z,42.00
2023-04-27T01:51:54.036Z,41.60
2023-04-27T01:56:59.231Z,42.00
2023-04-27T02:02:02.272Z,41.80
2023-04-27T02:07:05.164Z,41.90
2023-04-27T02:12:11.688Z,41.90
2023-04-27T02:17:14.618Z,41.90
2023-04-27T02:22:17.466Z,41.80
2023-04-27T02:27:21.602Z,42.10
2023-04-27T02:32:24.914Z,42.00
2023-04-27T02:37:27.840Z,42.10
2023-04-27T02:42:32.233Z,41.90
2023-04-27T02:47:35.305Z,42.00
2023-04-27T02:52:38.201Z,41.80
2023-04-27T02:57:42.426Z,41.90
2023-04-27T03:02:45.367Z,41.90
2023-04-27T03:07:48.284Z,42.10
2023-04-27T03:12:52.469Z,41.90
2023-04-27T03:17:55.507Z,41.80
2023-04-27T03:22:58.336Z,42.00
2023-04-27T03:28:02.464Z,42.00
2023-04-27T03:33:05.391Z,42.00
2023-04-27T03:38:08.246Z,42.00
2023-04-27T03:43:12.427Z,41.70
2023-04-27T03:48:16.322Z,41.90
2023-04-27T03:53:19.630Z,41.90
2023-04-27T03:58:23.821Z,42.00
2023-04-27T04:03:26.793Z,42.00
2023-04-27T04:08:29.734Z,41.70
2023-04-27T04:13:33.945Z,41.70
2023-04-27T04:18:37.675Z,42.10
2023-04-27T04:23:41.635Z,41.90
2023-04-27T04:28:45.986Z,41.90
2023-04-27T04:33:48.828Z,42.60
2023-04-27T04:38:51.682Z,42.80
2023-04-27T04:43:56.023Z,42.70
2023-04-27T04:48:58.848Z,42.40
2023-04-27T04:54:02.373Z,42.40
2023-04-27T04:59:06.630Z,42.40
2023-04-27T05:04:09.667Z,42.50
2023-04-27T05:09:12.706Z,42.50
2023-04-27T05:14:20.424Z,42.50
2023-04-27T05:19:23.296Z,42.60
2023-04-27T05:24:26.278Z,42.40
2023-04-27T05:29:30.492Z,42.30
2023-04-27T05:34:33.409Z,42.30
2023-04-27T05:39:36.410Z,42.50
2023-04-27T05:44:40.689Z,42.30
2023-04-27T05:49:43.590Z,42.40
2023-04-27T05:54:48.018Z,42.40
2023-04-27T05:59:52.592Z,42.10
2023-04-27T06:04:56.011Z,42.20
2023-04-27T06:09:58.888Z,42.30
2023-04-27T06:15:07.984Z,42.20
2023-04-27T06:20:11.954Z,42.40
2023-04-27T06:25:14.775Z,42.00
2023-04-27T06:30:19.071Z,42.20
2023-04-27T06:35:22.690Z,42.00
2023-04-27T06:40:26.883Z,42.20
2023-04-27T06:45:31.082Z,41.40
2023-04-27T06:50:33.866Z,41.20
2023-04-27T06:55:37.019Z,41.30
2023-04-27T07:00:41.294Z,41.40
2023-04-27T07:05:44.192Z,41.40
2023-04-27T07:10:47.031Z,41.40
2023-04-27T07:15:58.211Z,41.30
2023-04-27T07:21:01.135Z,42.70
2023-04-27T07:26:04.045Z,43.00
2023-04-27T07:31:08.404Z,43.60
2023-04-27T07:36:11.619Z,43.80
2023-04-27T07:41:14.550Z,44.00
2023-04-27T07:46:19.227Z,43.80
2023-04-27T07:51:22.166Z,46.60
2023-04-27T08:00:48.720Z,44.60
2023-04-27T08:10:43.928Z,43.40
2023-04-27T08:15:46.732Z,43.30
2023-04-27T08:20:49.512Z,42.80
2023-04-27T08:25:53.686Z,42.50
2023-04-27T08:30:56.604Z,42.50
2023-04-27T08:35:59.450Z,42.40
2023-04-27T08:41:14.527Z,42.00
2023-04-27T08:46:25.268Z,41.80
2023-04-27T08:51:28.936Z,41.80
2023-04-27T08:56:33.079Z,41.80
2023-04-27T09:01:35.931Z,42.00
2023-04-27T09:06:38.798Z,42.20
2023-04-27T09:11:42.970Z,42.10
2023-04-27T09:16:46.414Z,42.30
2023-04-27T09:21:50.826Z,42.30
2023-04-27T09:26:55.014Z,42.00
2023-04-27T09:31:57.897Z,42.00
2023-04-27T09:37:00.804Z,42.10
2023-04-27T09:42:05.479Z,41.90
2023-04-27T09:47:08.550Z,41.90
2023-04-27T09:52:12.245Z,41.70
2023-04-27T09:57:24.521Z,41.80
2023-04-27T10:02:27.976Z,41.90
2023-04-27T10:07:33.232Z,42.00
2023-04-27T10:12:37.868Z,42.10
2023-04-27T10:17:40.923Z,42.30
2023-04-27T10:22:46.185Z,42.00
2023-04-27T10:27:54.788Z,41.40
2023-04-27T10:32:58.732Z,41.60
2023-04-27T10:38:07.269Z,41.70
2023-04-27T10:43:12.324Z,41.50
2023-04-27T10:48:16.128Z,41.80
2023-04-27T10:53:19.027Z,41.60
2023-04-27T10:58:28.132Z,41.60
2023-04-27T11:03:40.167Z,42.20
2023-04-27T11:08:45.324Z,42.50
2023-04-27T11:13:52.770Z,42.30
2023-04-27T11:18:56.591Z,42.20
2023-04-27T11:24:04.987Z,42.10
2023-04-27T11:29:12.381Z,42.20
2023-04-27T11:34:19.753Z,42.30
2023-04-27T11:39:23.854Z,42.10
2023-04-27T11:44:28.603Z,42.00
2023-04-27T11:49:31.570Z,42.00
2023-04-27T11:54:34.465Z,41.60
2023-04-27T11:59:38.647Z,41.80
2023-04-27T12:04:42.327Z,42.20
2023-04-27T12:09:45.596Z,41.20
2023-04-27T12:14:49.958Z,41.30
2023-04-27T12:19:52.834Z,41.40
2023-04-27T12:24:56.050Z,41.40
2023-04-27T12:30:00.543Z,41.10
2023-04-27T12:35:03.522Z,40.70
2023-04-27T12:40:08.957Z,40.30
2023-04-27T12:45:13.819Z,40.80
2023-04-27T12:50:16.705Z,41.10
2023-04-27T12:55:32.118Z,41.00
2023-04-27T13:00:38.561Z,40.90
2023-04-27T13:05:41.944Z,40.70
2023-04-27T13:10:45.284Z,40.80
2023-04-27T13:15:49.509Z,40.20
2023-04-27T13:20:52.482Z,40.60
2023-04-27T13:25:55.345Z,40.40
2023-04-27T13:31:00.506Z,40.30
2023-04-27T13:36:03.918Z,40.60
2023-04-27T13:41:07.353Z,40.60
2023-04-27T13:46:11.732Z,40.70
2023-04-27T13:51:14.654Z,40.90
2023-04-27T13:56:17.494Z,40.90
2023-04-27T14:01:22.346Z,40.40
2023-04-27T14:06:25.265Z,40.50
2023-04-27T14:11:28.123Z,40.40
2023-04-27T14:16:32.327Z,40.10
2023-04-27T14:21:35.508Z,39.80
2023-04-27T14:26:38.719Z,39.80
2023-04-27T14:31:43.051Z,39.20
2023-04-27T14:36:45.965Z,39.00
2023-04-27T14:41:48.801Z,39.90
2023-04-27T14:46:53.029Z,38.80
2023-04-27T14:51:55.902Z,38.60
2023-04-27T14:56:59.049Z,38.40
2023-04-27T15:02:03.707Z,37.90
2023-04-27T15:07:06.984Z,37.40
2023-04-27T15:12:11.178Z,36.00
2023-04-27T15:17:16.194Z,34.70
2023-04-27T15:22:19.034Z,34.70
2023-04-27T15:27:22.107Z,34.00
2023-04-27T15:32:30.086Z,33.20
2023-04-27T15:37:35.644Z,32.60
2023-04-27T15:42:38.854Z,32.40
2023-04-27T15:47:43.094Z,32.60
2023-04-27T15:52:46.146Z,32.60
2023-04-27T15:57:49.059Z,32.50
2023-04-27T16:02:53.577Z,32.20
2023-04-27T16:07:56.670Z,32.40
2023-04-27T16:13:03.114Z,33.20
2023-04-27T16:18:08.354Z,33.40
2023-04-27T16:23:11.256Z,32.20
2023-04-27T16:28:14.043Z,33.20
2023-04-27T16:38:20.493Z,33.40
2023-04-27T16:43:23.744Z,33.60
2023-04-27T16:48:27.372Z,33.20
2023-04-27T16:53:31.497Z,33.70
2023-04-27T16:58:35.992Z,33.60
2023-04-27T17:03:39.000Z,34.20
2023-04-27T17:08:43.221Z,34.50
2023-04-27T17:13:46.743Z,34.80
2023-04-27T17:18:49.569Z,35.00
2023-04-27T17:23:53.802Z,35.20
2023-04-27T17:28:59.969Z,35.20
2023-04-27T17:34:03.696Z,35.10
2023-04-27T17:39:08.075Z,34.70
2023-04-27T17:44:12.488Z,36.40
2023-04-27T17:49:16.827Z,37.50
2023-04-27T17:54:21.521Z,37.60
2023-04-27T17:59:24.763Z,38.00
2023-04-27T18:04:27.815Z,38.10
2023-04-27T18:09:33.068Z,38.30
2023-04-27T18:14:36.037Z,38.50
2023-04-27T18:19:38.811Z,38.60
2023-04-27T18:24:43.564Z,38.80
2023-04-27T18:29:46.423Z,39.00
2023-04-27T18:34:49.789Z,39.10
2023-04-27T18:39:53.974Z,39.20
2023-04-27T18:45:00.488Z,39.20
2023-04-27T18:50:04.166Z,39.90
2023-04-27T18:55:10.098Z,39.70
2023-04-27T19:00:14.050Z,40.00
2023-04-27T19:05:17.017Z,40.20
2023-04-27T19:10:21.499Z,40.20
2023-04-27T19:15:24.567Z,40.40
2023-04-27T19:20:27.404Z,40.50
2023-04-27T19:25:32.313Z,40.50
2023-04-27T19:30:35.753Z,40.60
2023-04-27T19:35:38.553Z,40.70
2023-04-27T19:40:42.726Z,40.60
2023-04-27T19:45:45.603Z,40.90
2023-04-27T19:50:48.423Z,40.90
2023-04-27T19:55:52.910Z,41.10
2023-04-27T20:00:56.036Z,41.20
2023-04-27T20:06:00.451Z,41.10
2023-04-27T20:11:04.757Z,41.20
2023-04-27T20:16:09.723Z,41.30
2023-04-27T20:21:12.699Z,41.30
2023-04-27T20:26:17.627Z,41.40
2023-04-27T20:31:21.859Z,41.30
2023-04-27T20:36:25.730Z,41.20
2023-04-27T20:41:30.432Z,41.40
2023-04-27T20:46:33.270Z,41.10
2023-04-27T20:51:36.759Z,41.40
2023-04-27T20:56:40.892Z,41.20
2023-04-27T21:01:43.933Z,41.60
2023-04-27T21:06:46.891Z,41.40
2023-04-27T21:11:51.091Z,41.60
2023-04-27T21:16:54.064Z,41.50
2023-04-27T21:21:57.166Z,41.60
2023-04-27T21:27:03.734Z,41.60
2023-04-27T21:32:06.799Z,41.60
2023-04-27T21:37:09.658Z,41.70
2023-04-27T21:42:14.045Z,41.90
2023-04-27T21:47:17.853Z,41.70
2023-04-27T21:52:21.497Z,41.80
2023-04-27T21:57:25.938Z,41.70
2023-04-27T22:02:29.450Z,41.90
2023-04-27T22:07:32.506Z,41.90
2023-04-27T22:12:36.722Z,41.90
2023-04-27T22:17:40.577Z,42.10
2023-04-27T22:22:43.451Z,42.00
2023-04-27T22:27:47.642Z,42.10
2023-04-27T22:32:50.992Z,42.10
2023-04-27T22:37:54.981Z,42.40
2023-04-27T22:42:59.122Z,42.40
2023-04-27T22:48:02.021Z,42.30
2023-04-27T22:53:04.919Z,42.60
2023-04-27T22:58:09.125Z,42.10
2023-04-27T23:03:12.166Z,42.40
2023-04-27T23:08:16.869Z,42.50
2023-04-27T23:13:21.190Z,42.30
2023-04-27T23:18:24.014Z,42.60
2023-04-27T23:23:26.873Z,42.60
2023-04-27T23:28:31.124Z,42.60
2023-04-27T23:33:34.441Z,42.70
2023-04-27T23:38:37.269Z,42.70
2023-04-27T23:43:41.598Z,42.50
2023-04-27T23:48:44.397Z,42.70
2023-04-27T23:53:47.195Z,42.90
2023-04-27T23:58:51.524Z,42.70
